createdAt,value
2019-01-31T00:02:48.959Z,56238.29
2019-01-31T00:06:08.674Z,56235.20
2019-01-31T00:09:09.291Z,56222.87
2019-01-31T00:12:23.787Z,56218.75
2019-01-31T00:15:34.963Z,56224.92
2019-01-31T00:18:51.714Z,56210.52
2019-01-31T00:22:14.363Z,56189.96
2019-01-31T00:25:01.278Z,56198.19
2019-01-31T00:28:33.070Z,56197.16
2019-01-31T00:31:29.303Z,56174.54
2019-01-31T00:34:52.918Z,56217.72
2019-01-31T00:38:02.967Z,56236.23
2019-01-31T00:41:15.835Z,56186.87
2019-01-31T00:44:23.527Z,56192.02
2019-01-31T00:47:25.263Z,56195.10
2019-01-31T00:50:30.232Z,56186.87
2019-01-31T00:53:48.937Z,56215.67
2019-01-31T00:56:48.214Z,56201.27
2019-01-31T00:59:55.879Z,56211.55
2019-01-31T01:03:02.404Z,56216.70
2019-01-31T01:06:27.907Z,56193.05
2019-01-31T01:09:18.440Z,56200.24
2019-01-31T01:12:22.970Z,56217.72
2019-01-31T01:15:52.801Z,56171.45
2019-01-31T01:19:12.540Z,56236.23
2019-01-31T01:22:25.228Z,56239.32
2019-01-31T01:25:30.917Z,56207.44
2019-01-31T01:28:23.599Z,56205.38
2019-01-31T01:31:42.935Z,56211.55
2019-01-31T01:35:01.420Z,56196.13
2019-01-31T01:38:30.529Z,56166.31
2019-01-31T01:41:29.610Z,56205.38
2019-01-31T01:45:05.473Z,56223.89
2019-01-31T01:47:46.023Z,56192.02
2019-01-31T01:50:57.761Z,56172.48
2019-01-31T01:54:02.586Z,56180.71
2019-01-31T01:57:01.278Z,56216.70
2019-01-31T02:00:21.624Z,56197.16
2019-01-31T02:03:31.432Z,56221.84
2019-01-31T02:06:50.146Z,56199.21
2019-01-31T02:10:15.375Z,56215.67
2019-01-31T02:13:28.904Z,56190.99
2019-01-31T02:16:42.095Z,56212.58
2019-01-31T02:19:54.048Z,56195.10
2019-01-31T02:23:04.267Z,56225.95
2019-01-31T02:26:03.060Z,56186.87
2019-01-31T02:29:36.681Z,56185.85
2019-01-31T02:32:57.774Z,56208.47
2019-01-31T02:36:00.747Z,56208.47
2019-01-31T02:39:25.199Z,56223.89
2019-01-31T02:42:44.485Z,56184.82
2019-01-31T02:46:03.664Z,56229.04
2019-01-31T02:49:00.389Z,56238.29
2019-01-31T02:52:12.415Z,56222.87
2019-01-31T02:54:58.682Z,56195.10
2019-01-31T02:58:10.075Z,56239.32
2019-01-31T03:01:09.260Z,56204.36
2019-01-31T03:04:17.264Z,56200.24
2019-01-31T03:07:17.153Z,56214.64
2019-01-31T03:10:21.166Z,56230.06
2019-01-31T03:13:42.000Z,56193.05
2019-01-31T03:17:04.980Z,56208.47
2019-01-31T03:20:35.438Z,56213.61
2019-01-31T03:24:01.470Z,56178.65
2019-01-31T03:27:25.819Z,56226.98
2019-01-31T03:30:35.604Z,56203.33
2019-01-31T03:33:23.553Z,56204.36
2019-01-31T03:36:48.575Z,56234.18
2019-01-31T03:40:07.086Z,56187.90
2019-01-31T03:43:36.910Z,56188.93
2019-01-31T03:46:59.067Z,56197.16
2019-01-31T03:50:01.637Z,56210.52
2019-01-31T03:53:28.473Z,56201.27
2019-01-31T03:56:58.988Z,56210.52
2019-01-31T03:59:45.387Z,56224.92
2019-01-31T04:02:44.810Z,56214.64
2019-01-31T04:05:36.142Z,56236.23
2019-01-31T04:08:06.256Z,56207.44
2019-01-31T04:10:36.199Z,56229.04
2019-01-31T04:13:06.240Z,56205.38
2019-01-31T04:15:36.082Z,56203.33
2019-01-31T04:18:06.408Z,56207.44
2019-01-31T04:20:36.282Z,56192.02
2019-01-31T04:23:06.387Z,56192.02
2019-01-31T04:25:36.249Z,56200.24
2019-01-31T04:28:06.579Z,56172.48
2019-01-31T04:30:36.403Z,56192.02
2019-01-31T04:33:06.623Z,56204.36
2019-01-31T04:35:36.555Z,56193.05
2019-01-31T04:38:06.443Z,56200.24
2019-01-31T04:40:36.264Z,56211.55
2019-01-31T04:43:06.146Z,56216.70
2019-01-31T04:45:36.012Z,56167.34
2019-01-31T04:48:06.457Z,56221.84
2019-01-31T04:50:36.323Z,56195.10
2019-01-31T04:53:06.269Z,56217.72
2019-01-31T04:55:36.594Z,56160.14
2019-01-31T04:58:06.758Z,56197.16
2019-01-31T05:00:36.659Z,56215.67
2019-01-31T05:03:06.593Z,56213.61
2019-01-31T05:05:36.601Z,56221.84
2019-01-31T05:08:06.608Z,56207.44
2019-01-31T05:10:43.259Z,56207.44
2019-01-31T05:13:08.231Z,56230.06
2019-01-31T05:15:38.080Z,56182.76
2019-01-31T05:18:08.009Z,56248.57
2019-01-31T05:20:37.859Z,56232.12
2019-01-31T05:23:07.754Z,56229.04
2019-01-31T05:25:37.627Z,56215.67
2019-01-31T05:28:07.749Z,56221.84
2019-01-31T05:30:37.597Z,56247.54
2019-01-31T05:33:07.439Z,56197.16
2019-01-31T05:35:37.532Z,56202.30
2019-01-31T05:38:07.635Z,56213.61
2019-01-31T05:40:37.713Z,56248.57
2019-01-31T05:43:07.578Z,56188.93
2019-01-31T05:45:37.417Z,56226.98
2019-01-31T05:48:07.289Z,56221.84
2019-01-31T05:50:37.126Z,56242.40
2019-01-31T05:53:07.390Z,56265.03
2019-01-31T05:55:37.236Z,56235.20
2019-01-31T05:58:07.200Z,56214.64
2019-01-31T06:00:38.812Z,56199.21
2019-01-31T06:03:08.717Z,56228.01
2019-01-31T06:05:39.056Z,56208.47
2019-01-31T06:08:08.933Z,56247.54
2019-01-31T06:10:39.075Z,56210.52
2019-01-31T06:13:08.933Z,56196.13
2019-01-31T06:15:39.169Z,56190.99
2019-01-31T06:18:09.231Z,56225.95
2019-01-31T06:20:39.068Z,56205.38
2019-01-31T06:23:09.054Z,56242.40
2019-01-31T06:25:39.149Z,56238.29
2019-01-31T06:28:09.282Z,56244.46
2019-01-31T06:30:39.602Z,56209.50
2019-01-31T06:33:09.509Z,56243.43
2019-01-31T06:35:39.353Z,56244.46
2019-01-31T06:38:09.315Z,56244.46
2019-01-31T06:40:39.164Z,56243.43
2019-01-31T06:43:08.999Z,56233.15
2019-01-31T06:45:39.083Z,56228.01
2019-01-31T06:48:09.179Z,56252.69
2019-01-31T06:50:39.111Z,56256.80
2019-01-31T06:53:08.950Z,56246.52
2019-01-31T06:55:38.801Z,56231.09
2019-01-31T06:58:08.727Z,56258.86
2019-01-31T07:00:38.571Z,56232.12
2019-01-31T07:06:55.636Z,56242.40
2019-01-31T07:09:25.544Z,56248.57
2019-01-31T07:11:55.671Z,56219.78
2019-01-31T07:14:25.649Z,56232.12
2019-01-31T07:16:55.685Z,56214.64
2019-01-31T07:19:26.075Z,56234.18
2019-01-31T07:21:56.294Z,56246.52
2019-01-31T07:24:26.208Z,56217.72
2019-01-31T07:26:56.597Z,56242.40
2019-01-31T07:29:26.609Z,56220.81
2019-01-31T07:31:56.772Z,56245.49
2019-01-31T07:34:26.990Z,56216.70
2019-01-31T07:36:57.198Z,56217.72
2019-01-31T07:39:27.537Z,56222.87
2019-01-31T07:41:57.638Z,56210.52
2019-01-31T07:44:27.853Z,56195.10
2019-01-31T07:46:57.805Z,56232.12
2019-01-31T07:49:28.221Z,56225.95
2019-01-31T07:51:58.191Z,56252.69
2019-01-31T07:54:28.379Z,56217.72
2019-01-31T07:56:58.517Z,56209.50
2019-01-31T07:59:28.439Z,56236.23
2019-01-31T08:01:58.300Z,56248.57
2019-01-31T08:04:28.198Z,56240.34
2019-01-31T08:06:58.589Z,56231.09
2019-01-31T08:09:29.040Z,56206.41
2019-01-31T08:11:59.447Z,56208.47
2019-01-31T08:14:31.339Z,56225.95
2019-01-31T08:17:20.371Z,56217.72
2019-01-31T08:19:50.293Z,56201.27
2019-01-31T08:22:20.520Z,56170.42
2019-01-31T08:24:50.698Z,56221.84
2019-01-31T08:27:20.637Z,56201.27
2019-01-31T08:29:50.827Z,56215.67
2019-01-31T08:32:20.997Z,56254.74
2019-01-31T08:34:50.945Z,56226.98
2019-01-31T08:37:21.138Z,56180.71
2019-01-31T08:39:51.070Z,56205.38
2019-01-31T08:42:21.248Z,56198.19
2019-01-31T08:44:51.421Z,56198.19
2019-01-31T08:47:21.616Z,56199.21
2019-01-31T08:49:51.547Z,56211.55
2019-01-31T08:52:21.787Z,56204.36
2019-01-31T08:54:52.255Z,56188.93
2019-01-31T08:57:22.693Z,56181.73
2019-01-31T08:59:52.836Z,56181.73
2019-01-31T09:02:23.254Z,56188.93
2019-01-31T09:04:53.538Z,56170.42
2019-01-31T09:07:23.719Z,56176.59
2019-01-31T09:09:53.897Z,56179.68
2019-01-31T09:12:24.320Z,56195.10
2019-01-31T09:14:55.073Z,56187.90
2019-01-31T09:17:25.072Z,56177.62
2019-01-31T09:19:55.245Z,56177.62
2019-01-31T09:22:39.355Z,56100.50
2019-01-31T09:25:52.846Z,56063.48
2019-01-31T09:28:44.742Z,56055.26
2019-01-31T09:32:25.263Z,56005.90
2019-01-31T09:35:58.473Z,55997.68
2019-01-31T09:39:32.993Z,56035.72
2019-01-31T09:42:26.821Z,56073.77
2019-01-31T09:45:11.834Z,56067.60
2019-01-31T09:48:24.163Z,56057.32
2019-01-31T09:51:45.500Z,56050.12
2019-01-31T09:54:53.646Z,56055.26
2019-01-31T09:58:28.288Z,56138.55
2019-01-31T10:01:24.521Z,56147.80
2019-01-31T10:04:34.139Z,56155.00
2019-01-31T10:08:02.393Z,56165.28
2019-01-31T10:11:12.540Z,56165.28
2019-01-31T10:14:39.574Z,56189.96
2019-01-31T10:18:05.969Z,56193.05
2019-01-31T10:21:17.516Z,56214.64
2019-01-31T10:24:14.745Z,56197.16
2019-01-31T10:27:50.311Z,56195.10
2019-01-31T10:31:08.060Z,56186.87
2019-01-31T10:34:32.694Z,56207.44
2019-01-31T10:37:52.686Z,56179.68
2019-01-31T10:41:27.546Z,56216.70
2019-01-31T10:44:43.876Z,56156.03
2019-01-31T10:48:07.644Z,56197.16
2019-01-31T10:51:56.260Z,56212.58
2019-01-31T10:55:20.161Z,56176.59
2019-01-31T10:58:40.644Z,56176.59
2019-01-31T11:01:58.514Z,56202.30
2019-01-31T11:05:20.617Z,56223.89
2019-01-31T11:08:16.415Z,56230.06
2019-01-31T11:11:29.437Z,56205.38
2019-01-31T11:14:48.552Z,56198.19
2019-01-31T11:18:12.674Z,56203.33
2019-01-31T11:21:45.976Z,56203.33
2019-01-31T11:24:36.665Z,56144.71
2019-01-31T11:27:52.445Z,56188.93
2019-01-31T11:30:54.651Z,56197.16
2019-01-31T11:34:32.436Z,56182.76
2019-01-31T11:37:31.859Z,56129.29
2019-01-31T11:40:46.358Z,56156.03
2019-01-31T11:43:41.377Z,56180.71
2019-01-31T11:46:55.562Z,56185.85
2019-01-31T11:50:05.447Z,56157.05
2019-01-31T11:53:21.400Z,56178.65
2019-01-31T11:56:48.338Z,56156.03
2019-01-31T11:59:18.792Z,56193.05
2019-01-31T12:01:48.859Z,56185.85
2019-01-31T12:04:19.909Z,56230.06
2019-01-31T12:06:50.426Z,56178.65
2019-01-31T12:09:22.266Z,56195.10
2019-01-31T12:11:53.017Z,56177.62
2019-01-31T12:14:22.946Z,56156.03
2019-01-31T12:16:53.745Z,56149.86
2019-01-31T12:19:24.158Z,56166.31
2019-01-31T12:21:57.722Z,56197.16
2019-01-31T12:24:28.142Z,56160.14
2019-01-31T12:26:58.584Z,56189.96
2019-01-31T12:29:28.489Z,56178.65
2019-01-31T12:31:58.670Z,56178.65
2019-01-31T12:34:28.908Z,56147.80
2019-01-31T12:36:58.896Z,56177.62
2019-01-31T12:39:29.487Z,56159.11
2019-01-31T12:42:00.128Z,56166.31
2019-01-31T12:44:30.706Z,56201.27
2019-01-31T12:47:00.598Z,56155.00
2019-01-31T12:49:31.052Z,56158.09
2019-01-31T12:52:04.177Z,56195.10
2019-01-31T12:54:33.140Z,56161.17
2019-01-31T12:57:03.481Z,56177.62
2019-01-31T12:59:33.713Z,56184.82
2019-01-31T13:02:04.222Z,56177.62
2019-01-31T13:04:34.466Z,56174.54
2019-01-31T13:07:05.232Z,56174.54
2019-01-31T13:09:35.643Z,56140.61
2019-01-31T13:12:05.705Z,56172.48
2019-01-31T13:14:35.602Z,56149.86
2019-01-31T13:17:07.384Z,56147.80
2019-01-31T13:19:37.959Z,56150.89
2019-01-31T13:22:08.137Z,56143.69
2019-01-31T13:24:38.583Z,56190.99
2019-01-31T13:27:09.084Z,56162.20
2019-01-31T13:29:39.239Z,56164.25
2019-01-31T13:32:09.538Z,56158.09
2019-01-31T13:34:39.981Z,56168.37
2019-01-31T13:37:10.413Z,56188.93
2019-01-31T13:39:40.507Z,56145.75
2019-01-31T13:42:10.403Z,56167.34
2019-01-31T13:44:40.597Z,56149.86
2019-01-31T13:47:10.737Z,56159.11
2019-01-31T13:49:40.937Z,56174.54
2019-01-31T13:52:11.098Z,56143.69
2019-01-31T13:54:41.402Z,56133.41
2019-01-31T13:57:11.309Z,56151.91
2019-01-31T13:59:41.527Z,56182.76
2019-01-31T14:02:11.466Z,56185.85
2019-01-31T14:04:41.671Z,56137.52
2019-01-31T14:07:11.641Z,56149.86
2019-01-31T14:09:41.568Z,56129.29
2019-01-31T14:12:11.994Z,56143.69
2019-01-31T14:14:41.925Z,56168.37
2019-01-31T14:17:12.172Z,56149.86
2019-01-31T14:19:42.694Z,56138.55
2019-01-31T14:22:12.879Z,56172.48
2019-01-31T14:24:43.842Z,56182.76
2019-01-31T14:27:13.865Z,56178.65
2019-01-31T14:29:44.057Z,56150.89
2019-01-31T14:32:15.655Z,56199.21
2019-01-31T14:34:45.897Z,56172.48
2019-01-31T14:37:16.038Z,56134.43
2019-01-31T14:39:46.196Z,56165.28
2019-01-31T14:42:16.375Z,56170.42
2019-01-31T14:44:46.378Z,56182.76
2019-01-31T14:47:16.847Z,56136.49
2019-01-31T14:49:46.806Z,56195.10
2019-01-31T14:52:16.754Z,56179.68
2019-01-31T14:54:46.646Z,56182.76
2019-01-31T14:57:16.540Z,56176.59
2019-01-31T14:59:46.713Z,56159.11
2019-01-31T15:02:16.633Z,56147.80
2019-01-31T15:04:46.819Z,56151.91
2019-01-31T15:07:16.713Z,56183.79
2019-01-31T15:09:46.640Z,56158.09
2019-01-31T15:12:16.851Z,56176.59
2019-01-31T15:14:47.288Z,56158.09
2019-01-31T15:17:17.440Z,56147.80
2019-01-31T15:19:47.639Z,56209.50
2019-01-31T15:22:17.793Z,56170.42
2019-01-31T15:24:47.975Z,56186.87
2019-01-31T15:27:17.921Z,56187.90
2019-01-31T15:29:48.106Z,56212.58
2019-01-31T15:32:18.283Z,56207.44
2019-01-31T15:34:48.601Z,56186.87
2019-01-31T15:37:19.004Z,56203.33
2019-01-31T15:39:48.926Z,56204.36
2019-01-31T15:42:19.349Z,56223.89
2019-01-31T15:44:49.281Z,56224.92
2019-01-31T15:47:19.359Z,56194.07
2019-01-31T15:49:49.522Z,56173.51
2019-01-31T15:52:19.460Z,56215.67
2019-01-31T15:54:49.694Z,56203.33
2019-01-31T15:57:20.925Z,56178.65
2019-01-31T15:59:51.464Z,56182.76
2019-01-31T16:02:21.771Z,56213.61
2019-01-31T16:04:51.735Z,56202.30
2019-01-31T16:07:22.025Z,56204.36
2019-01-31T16:09:52.245Z,56195.10
2019-01-31T16:12:22.155Z,56194.07
2019-01-31T16:14:55.050Z,56234.18
2019-01-31T16:17:24.336Z,56195.10
2019-01-31T16:19:54.564Z,56209.50
2019-01-31T16:22:24.470Z,56180.71
2019-01-31T16:24:54.370Z,56180.71
2019-01-31T16:27:24.358Z,56188.93
2019-01-31T16:29:54.336Z,56197.16
2019-01-31T16:32:24.210Z,56236.23
2019-01-31T16:34:54.259Z,56218.75
2019-01-31T16:37:25.008Z,56184.82
2019-01-31T16:39:55.483Z,56214.64
2019-01-31T16:42:25.478Z,56206.41
2019-01-31T16:45:06.130Z,56210.52
2019-01-31T16:47:27.340Z,56182.76
2019-01-31T16:49:57.247Z,56225.95
2019-01-31T16:52:27.163Z,56182.76
2019-01-31T16:54:57.052Z,56175.56
2019-01-31T16:57:27.343Z,56235.20
2019-01-31T16:59:57.756Z,56201.27
2019-01-31T17:02:28.002Z,56201.27
2019-01-31T17:04:58.001Z,56182.76
2019-01-31T17:07:28.044Z,56185.85
2019-01-31T17:09:58.530Z,56203.33
2019-01-31T17:12:28.454Z,56171.45
2019-01-31T17:14:58.890Z,56221.84
2019-01-31T17:17:29.102Z,56211.55
2019-01-31T17:19:59.347Z,56195.10
2019-01-31T17:22:29.252Z,56197.16
2019-01-31T17:24:59.144Z,56169.39
2019-01-31T17:27:29.314Z,56241.37
2019-01-31T17:30:00.092Z,56198.19
2019-01-31T17:32:30.058Z,56256.80
2019-01-31T17:35:00.229Z,56228.01
2019-01-31T17:37:30.126Z,56203.33
2019-01-31T17:40:00.309Z,56236.23
2019-01-31T17:42:30.231Z,56239.32
2019-01-31T17:45:00.199Z,56202.30
2019-01-31T17:47:30.167Z,56219.78
2019-01-31T17:50:00.318Z,56199.21
2019-01-31T17:52:30.632Z,56230.06
2019-01-31T17:55:00.803Z,56211.55
2019-01-31T17:57:30.947Z,56257.83
2019-01-31T18:00:01.107Z,56215.67
2019-01-31T18:02:31.030Z,56256.80
2019-01-31T18:05:01.195Z,56207.44
2019-01-31T18:07:31.117Z,56188.93
2019-01-31T18:10:01.058Z,56207.44
2019-01-31T18:12:31.253Z,56224.92
2019-01-31T18:15:02.014Z,56228.01
2019-01-31T18:17:32.154Z,56215.67
2019-01-31T18:20:02.093Z,56194.07
2019-01-31T18:22:32.005Z,56174.54
2019-01-31T18:25:02.174Z,56208.47
2019-01-31T18:27:32.360Z,56219.78
2019-01-31T18:30:02.557Z,56238.29
2019-01-31T18:32:32.730Z,56242.40
2019-01-31T18:35:03.160Z,56213.61
2019-01-31T18:37:33.316Z,56234.18
2019-01-31T18:40:03.361Z,56250.63
2019-01-31T18:42:33.549Z,56230.06
2019-01-31T18:45:04.090Z,56207.44
2019-01-31T18:47:34.261Z,56199.21
2019-01-31T18:50:05.628Z,56237.26
2019-01-31T18:52:35.523Z,56207.44
2019-01-31T18:55:06.438Z,56234.18
2019-01-31T18:57:36.677Z,56203.33
2019-01-31T19:00:15.840Z,56219.78
2019-01-31T19:02:45.846Z,56214.64
2019-01-31T19:05:16.112Z,56204.36
2019-01-31T19:07:46.393Z,56253.71
2019-01-31T19:10:16.695Z,56240.34
2019-01-31T19:12:47.061Z,56202.30
2019-01-31T19:15:18.054Z,56232.12
2019-01-31T19:17:48.326Z,56214.64
2019-01-31T19:20:21.946Z,56202.30
2019-01-31T19:22:52.449Z,56186.87
2019-01-31T19:25:22.824Z,56242.40
2019-01-31T19:27:53.013Z,56223.89
2019-01-31T19:30:26.067Z,56234.18
2019-01-31T19:32:56.071Z,56238.29
2019-01-31T19:35:26.186Z,56202.30
2019-01-31T19:38:01.902Z,56210.52
2019-01-31T19:40:31.715Z,56213.61
2019-01-31T19:43:01.686Z,56219.78
2019-01-31T19:45:40.769Z,56215.67
2019-01-31T19:48:11.245Z,56199.21
2019-01-31T19:50:43.598Z,56194.07
2019-01-31T19:53:13.632Z,56184.82
2019-01-31T19:55:44.315Z,56194.07
2019-01-31T19:58:15.000Z,56215.67
2019-01-31T20:00:44.954Z,56228.01
2019-01-31T20:03:15.165Z,56209.50
2019-01-31T20:05:45.107Z,56244.46
2019-01-31T20:08:15.112Z,56205.38
2019-01-31T20:10:45.408Z,56196.13
2019-01-31T20:13:15.511Z,56211.55
2019-01-31T20:15:46.165Z,56207.44
2019-01-31T20:18:16.048Z,56240.34
2019-01-31T20:20:46.446Z,56218.75
2019-01-31T20:23:16.669Z,56248.57
2019-01-31T20:25:46.658Z,56214.64
2019-01-31T20:28:16.811Z,56217.72
2019-01-31T20:30:47.011Z,56189.96
2019-01-31T20:33:16.901Z,56207.44
2019-01-31T20:35:47.074Z,56228.01
2019-01-31T20:38:17.238Z,56237.26
2019-01-31T20:40:47.716Z,56205.38
2019-01-31T20:43:17.693Z,56233.15
2019-01-31T20:45:47.916Z,56228.01
2019-01-31T20:48:18.730Z,56201.27
2019-01-31T20:50:48.704Z,56222.87
2019-01-31T20:53:18.919Z,56260.91
2019-01-31T20:55:49.171Z,56211.55
2019-01-31T20:58:19.157Z,56207.44
2019-01-31T21:00:49.842Z,56205.38
2019-01-31T21:03:19.693Z,56246.52
2019-01-31T21:05:49.633Z,56258.86
2019-01-31T21:08:19.500Z,56238.29
2019-01-31T21:10:50.053Z,56246.52
2019-01-31T21:13:19.983Z,56220.81
2019-01-31T21:15:52.832Z,56217.72
2019-01-31T21:18:21.568Z,56226.98
2019-01-31T21:20:51.667Z,56243.43
2019-01-31T21:23:21.544Z,56188.93
2019-01-31T21:25:51.367Z,56223.89
2019-01-31T21:28:21.329Z,56224.92
2019-01-31T21:30:51.495Z,56207.44
2019-01-31T21:33:21.328Z,56193.05
2019-01-31T21:35:51.340Z,56225.95
2019-01-31T21:38:21.159Z,56234.18
2019-01-31T21:40:51.069Z,56221.84
2019-01-31T21:43:20.899Z,56235.20
2019-01-31T21:45:50.759Z,56215.67
2019-01-31T21:48:20.629Z,56240.34
2019-01-31T21:50:50.510Z,56207.44
2019-01-31T21:53:20.747Z,56248.57
2019-01-31T21:55:50.869Z,56254.74
2019-01-31T21:58:20.712Z,56225.95
2019-01-31T22:00:50.806Z,56236.23
2019-01-31T22:03:20.680Z,56238.29
2019-01-31T22:05:50.508Z,56260.91
2019-01-31T22:08:20.468Z,56224.92
2019-01-31T22:10:50.405Z,56234.18
2019-01-31T22:13:20.237Z,56208.47
2019-01-31T22:15:50.069Z,56199.21
2019-01-31T22:18:20.030Z,56250.63
2019-01-31T22:20:50.152Z,56240.34
2019-01-31T22:23:20.043Z,56229.04
2019-01-31T22:25:49.971Z,56214.64
2019-01-31T22:28:19.831Z,56230.06
2019-01-31T22:30:49.692Z,56220.81
2019-01-31T22:33:19.653Z,56234.18
2019-01-31T22:35:50.906Z,56238.29
2019-01-31T22:38:20.782Z,56212.58
2019-01-31T22:40:50.659Z,56224.92
2019-01-31T22:43:20.827Z,56250.63
2019-01-31T22:45:50.724Z,56236.23
2019-01-31T22:48:20.547Z,56265.03
2019-01-31T22:50:50.407Z,56193.05
2019-01-31T22:53:20.246Z,56228.01
2019-01-31T22:55:50.913Z,56234.18
2019-01-31T22:58:20.790Z,56249.60
2019-01-31T23:01:24.379Z,56221.84
2019-01-31T23:03:54.575Z,56224.92
2019-01-31T23:06:25.252Z,56245.49
2019-01-31T23:08:55.131Z,56246.52
2019-01-31T23:11:25.070Z,56241.37
2019-01-31T23:13:54.948Z,56268.11
2019-01-31T23:16:24.878Z,56214.64
2019-01-31T23:18:55.004Z,56233.15
2019-01-31T23:21:24.833Z,56223.89
2019-01-31T23:23:54.720Z,56244.46
2019-01-31T23:26:24.802Z,56201.27
2019-01-31T23:28:54.710Z,56237.26
2019-01-31T23:31:24.568Z,56222.87
2019-01-31T23:33:54.402Z,56211.55
2019-01-31T23:36:24.520Z,56249.60
2019-01-31T23:38:54.907Z,56234.18
2019-01-31T23:41:24.789Z,56199.21
2019-01-31T23:43:54.993Z,56206.41
2019-01-31T23:46:25.292Z,56256.80
2019-01-31T23:48:55.129Z,56208.47
2019-01-31T23:51:25.051Z,56215.67
2019-01-31T23:53:55.277Z,56237.26
2019-01-31T23:56:25.196Z,56217.72
2019-01-31T23:58:55.518Z,56239.32
